createdAt,value
2023-04-07T00:02:14.075Z,17.98
2023-04-07T00:04:41.013Z,15.90
2023-04-07T00:07:07.859Z,19.20
2023-04-07T00:09:34.839Z,18.90
2023-04-07T00:12:03.019Z,18.33
2023-04-07T00:14:29.917Z,15.18
2023-04-07T00:16:57.013Z,19.50
2023-04-07T00:19:23.962Z,16.58
2023-04-07T00:21:50.682Z,11.70
2023-04-07T00:24:33.276Z,15.88
2023-04-07T00:27:01.250Z,14.43
2023-04-07T00:29:28.122Z,11.35
2023-04-07T00:31:54.982Z,12.05
2023-04-07T00:34:21.874Z,15.45
2023-04-07T00:36:52.414Z,13.20
2023-04-07T00:39:21.698Z,13.43
2023-04-07T00:41:48.720Z,15.07
2023-04-07T00:44:15.692Z,12.98
2023-04-07T00:46:42.889Z,17.00
2023-04-07T00:49:11.337Z,14.82
2023-04-07T00:51:38.490Z,16.55
2023-04-07T00:54:06.543Z,9.55
2023-04-07T00:56:35.711Z,11.48
2023-04-07T00:59:07.610Z,13.38
2023-04-07T01:01:48.953Z,13.77
2023-04-07T01:04:32.816Z,8.30
2023-04-07T01:07:14.917Z,11.52
2023-04-07T01:09:48.188Z,14.32
2023-04-07T01:12:44.327Z,11.10
2023-04-07T01:15:15.499Z,14.70
2023-04-07T01:18:03.565Z,10.07
2023-04-07T01:20:33.681Z,10.70
2023-04-07T01:23:08.734Z,13.55
2023-04-07T01:26:19.874Z,9.48
2023-04-07T01:29:13.515Z,9.68
2023-04-07T01:31:42.252Z,11.70
2023-04-07T01:34:13.553Z,12.00
2023-04-07T01:36:41.603Z,11.27
2023-04-07T01:39:10.099Z,8.93
2023-04-07T01:41:38.896Z,9.65
2023-04-07T01:44:08.064Z,11.32
2023-04-07T01:46:38.183Z,8.57
2023-04-07T01:49:05.857Z,7.07
2023-04-07T01:51:34.132Z,8.20
2023-04-07T01:54:02.418Z,8.02
2023-04-07T01:56:29.540Z,11.32
2023-04-07T01:58:57.246Z,7.55
2023-04-07T02:01:29.810Z,7.97
2023-04-07T02:04:08.099Z,7.18
2023-04-07T02:06:59.588Z,7.78
2023-04-07T02:09:28.868Z,10.80
2023-04-07T02:11:58.739Z,10.43
2023-04-07T02:14:26.213Z,7.78
2023-04-07T02:16:55.231Z,9.18
2023-04-07T02:19:25.074Z,12.63
2023-04-07T02:21:55.021Z,8.30
2023-04-07T02:24:23.987Z,8.45
2023-04-07T02:26:53.652Z,11.25
2023-04-07T02:29:20.692Z,11.25
2023-04-07T02:31:49.867Z,12.30
2023-04-07T02:34:16.868Z,7.45
2023-04-07T02:36:43.786Z,9.77
2023-04-07T02:39:12.894Z,10.60
2023-04-07T02:41:42.421Z,8.30
2023-04-07T02:44:09.080Z,12.98
2023-04-07T02:46:38.763Z,12.88
2023-04-07T02:49:05.524Z,16.55
2023-04-07T02:51:32.482Z,9.35
2023-04-07T02:54:02.189Z,9.82
2023-04-07T02:56:29.415Z,8.60
2023-04-07T02:58:56.267Z,11.35
2023-04-07T03:01:23.344Z,15.35
2023-04-07T03:03:53.338Z,10.70
2023-04-07T03:06:25.581Z,8.68
2023-04-07T03:08:52.624Z,12.85
2023-04-07T03:11:21.658Z,13.73
2023-04-07T03:13:48.700Z,10.75
2023-04-07T03:16:17.822Z,9.48
2023-04-07T03:18:47.290Z,10.77
2023-04-07T03:21:16.380Z,12.27
2023-04-07T03:23:45.996Z,12.48
2023-04-07T03:26:15.614Z,15.90
2023-04-07T03:28:42.517Z,14.32
2023-04-07T03:31:11.412Z,12.95
2023-04-07T03:33:38.245Z,14.38
2023-04-07T03:36:05.407Z,13.15
2023-04-07T03:38:32.264Z,13.05
2023-04-07T03:40:59.009Z,11.93
2023-04-07T03:43:28.214Z,14.20
2023-04-07T03:45:55.094Z,9.88
2023-04-07T03:48:22.179Z,17.25
2023-04-07T03:50:48.979Z,12.38
2023-04-07T03:53:16.915Z,14.30
2023-04-07T03:55:44.757Z,10.38
2023-04-07T03:58:12.409Z,14.57
2023-04-07T04:00:42.746Z,15.85
2023-04-07T04:03:10.278Z,22.98
2023-04-07T04:05:37.419Z,13.57
2023-04-07T04:08:04.242Z,15.73
2023-04-07T04:10:31.345Z,17.02
2023-04-07T04:13:00.973Z,12.90
2023-04-07T04:15:30.870Z,15.90
2023-04-07T04:17:57.699Z,14.75
2023-04-07T04:20:24.588Z,20.90
2023-04-07T04:22:51.401Z,14.73
2023-04-07T04:25:18.368Z,17.17
2023-04-07T04:27:45.751Z,19.50
2023-04-07T04:30:15.072Z,13.93
2023-04-07T04:32:42.006Z,13.50
2023-04-07T04:35:12.296Z,15.57
2023-04-07T04:37:39.285Z,15.98
2023-04-07T04:40:09.531Z,16.70
2023-04-07T04:42:42.009Z,19.17
2023-04-07T04:45:12.334Z,15.95
2023-04-07T04:47:39.271Z,23.15
2023-04-07T04:50:08.871Z,14.23
2023-04-07T04:52:41.029Z,17.52
2023-04-07T04:55:12.835Z,15.73
2023-04-07T04:57:43.448Z,19.27
2023-04-07T05:00:11.081Z,19.00
2023-04-07T05:02:38.268Z,16.20
2023-04-07T05:05:06.221Z,23.83
2023-04-07T05:07:33.118Z,30.55
2023-04-07T05:10:04.177Z,15.30
2023-04-07T05:12:31.166Z,18.38
2023-04-07T05:15:00.219Z,21.48
2023-04-07T05:17:36.915Z,15.90
2023-04-07T05:20:04.779Z,19.38
2023-04-07T05:22:31.770Z,21.02
2023-04-07T05:24:58.556Z,19.45
2023-04-07T05:27:27.645Z,19.38
2023-04-07T05:29:54.467Z,21.20
2023-04-07T05:32:21.299Z,24.10
2023-04-07T05:34:48.176Z,17.80
2023-04-07T05:37:14.954Z,19.70
2023-04-07T05:39:49.712Z,15.82
2023-04-07T05:42:22.621Z,16.02
2023-04-07T05:44:49.518Z,20.92
2023-04-07T05:47:16.408Z,19.38
2023-04-07T05:49:46.321Z,20.17
2023-04-07T05:52:16.312Z,24.13
2023-04-07T05:54:43.172Z,22.60
2023-04-07T05:57:10.144Z,21.92
2023-04-07T05:59:36.935Z,20.80
2023-04-07T06:02:05.293Z,22.85
2023-04-07T06:04:33.011Z,18.38
2023-04-07T06:07:02.317Z,20.45
2023-04-07T06:09:31.529Z,50.00
2023-04-07T06:12:01.752Z,21.25
2023-04-07T06:14:28.629Z,22.70
2023-04-07T06:16:58.432Z,23.70
2023-04-07T06:19:25.455Z,20.50
2023-04-07T06:21:53.573Z,21.30
2023-04-07T06:24:25.459Z,21.73
2023-04-07T06:26:55.405Z,21.85
2023-04-07T06:29:22.660Z,16.08
2023-04-07T06:31:49.564Z,24.45
2023-04-07T06:34:16.878Z,21.50
2023-04-07T06:36:44.006Z,25.13
2023-04-07T06:39:11.051Z,17.25
2023-04-07T06:41:39.453Z,22.92
2023-04-07T06:44:09.638Z,22.50
2023-04-07T06:46:48.178Z,23.38
2023-04-07T06:49:18.331Z,23.17
2023-04-07T06:51:45.214Z,18.70
2023-04-07T06:54:14.911Z,27.17
2023-04-07T06:56:42.819Z,15.40
2023-04-07T06:59:10.405Z,19.80
2023-04-07T07:01:38.087Z,17.33
2023-04-07T07:04:08.233Z,18.33
2023-04-07T07:06:37.854Z,17.77
2023-04-07T07:09:06.750Z,15.10
2023-04-07T07:11:33.813Z,15.15
2023-04-07T07:14:00.459Z,10.98
2023-04-07T07:16:27.158Z,15.45
2023-04-07T07:18:53.827Z,14.95
2023-04-07T07:21:23.746Z,10.48
2023-04-07T07:23:50.566Z,15.45
2023-04-07T07:26:17.233Z,11.90
2023-04-07T07:28:47.121Z,8.80
2023-04-07T07:31:16.962Z,11.00
2023-04-07T07:33:46.120Z,11.05
2023-04-07T07:36:12.965Z,8.32
2023-04-07T07:38:39.981Z,12.70
2023-04-07T07:41:07.421Z,6.22
2023-04-07T07:43:34.125Z,8.40
2023-04-07T07:46:01.025Z,8.85
2023-04-07T07:48:27.612Z,6.85
2023-04-07T07:50:56.930Z,7.22
2023-04-07T07:53:23.707Z,5.85
2023-04-07T07:55:50.473Z,6.65
2023-04-07T07:58:17.104Z,13.55
2023-04-07T08:00:46.049Z,13.93
2023-04-07T08:03:12.924Z,7.75
2023-04-07T08:05:42.803Z,9.80
2023-04-07T08:08:09.426Z,8.50
2023-04-07T08:10:38.476Z,7.97
2023-04-07T08:13:07.302Z,10.40
2023-04-07T08:15:33.938Z,10.23
2023-04-07T08:18:04.839Z,9.50
2023-04-07T08:20:32.117Z,8.65
2023-04-07T08:22:59.679Z,6.88
2023-04-07T08:25:26.387Z,9.85
2023-04-07T08:27:53.157Z,6.90
2023-04-07T08:30:21.167Z,10.63
2023-04-07T08:32:47.824Z,7.93
2023-04-07T08:35:16.669Z,8.93
2023-04-07T08:37:44.449Z,6.75
2023-04-07T08:40:14.842Z,6.93
2023-04-07T08:42:46.405Z,6.85
2023-04-07T08:45:18.654Z,12.82
2023-04-07T08:47:47.871Z,7.55
2023-04-07T08:50:17.589Z,8.38
2023-04-07T08:53:00.720Z,11.02
2023-04-07T08:55:29.592Z,7.63
2023-04-07T08:57:57.363Z,7.05
2023-04-07T09:00:24.330Z,11.68
2023-04-07T09:02:51.905Z,5.05
2023-04-07T09:05:18.792Z,9.57
2023-04-07T09:07:45.423Z,10.93
2023-04-07T09:10:14.353Z,11.05
2023-04-07T09:12:45.705Z,6.95
2023-04-07T09:15:12.268Z,12.63
2023-04-07T09:17:38.994Z,10.75
2023-04-07T09:20:06.111Z,8.35
2023-04-07T09:22:38.273Z,12.52
2023-04-07T09:25:15.474Z,8.77
2023-04-07T09:27:54.406Z,8.23
2023-04-07T09:30:21.353Z,7.45
2023-04-07T09:32:48.267Z,9.23
2023-04-07T09:35:14.953Z,11.43
2023-04-07T09:37:42.633Z,7.22
2023-04-07T09:40:11.850Z,9.35
2023-04-07T09:42:48.435Z,12.75
2023-04-07T09:45:33.924Z,11.48
2023-04-07T09:48:06.138Z,5.50
2023-04-07T09:50:37.747Z,7.53
2023-04-07T09:53:05.003Z,9.00
2023-04-07T09:55:35.469Z,7.03
2023-04-07T09:58:03.527Z,5.10
2023-04-07T10:00:30.613Z,6.60
2023-04-07T10:03:00.453Z,9.38
2023-04-07T10:05:28.786Z,11.10
2023-04-07T10:07:56.200Z,5.93
2023-04-07T10:10:25.933Z,8.52
2023-04-07T10:12:55.522Z,8.77
2023-04-07T10:15:23.207Z,4.63
2023-04-07T10:17:57.026Z,8.32
2023-04-07T10:20:24.446Z,8.52
2023-04-07T10:22:53.889Z,7.40
2023-04-07T10:25:25.809Z,11.25
2023-04-07T10:28:00.711Z,6.22
2023-04-07T10:30:30.703Z,9.48
2023-04-07T10:33:00.171Z,6.30
2023-04-07T10:35:27.040Z,8.05
2023-04-07T10:38:08.726Z,10.73
2023-04-07T10:40:36.444Z,10.65
2023-04-07T10:43:09.745Z,12.30
2023-04-07T10:45:48.738Z,12.63
2023-04-07T10:48:17.400Z,11.35
2023-04-07T10:51:10.738Z,8.23
2023-04-07T10:53:38.412Z,9.88
2023-04-07T10:56:05.926Z,9.05
2023-04-07T10:58:35.070Z,13.95
2023-04-07T11:01:04.858Z,6.80
2023-04-07T11:03:36.533Z,10.35
2023-04-07T11:06:08.466Z,13.13
2023-04-07T11:08:43.546Z,10.70
2023-04-07T11:11:12.483Z,9.18
2023-04-07T11:13:43.430Z,12.48
2023-04-07T11:16:10.613Z,7.65
2023-04-07T11:18:37.622Z,6.75
2023-04-07T11:21:07.169Z,11.15
2023-04-07T11:23:42.621Z,8.80
2023-04-07T11:26:11.592Z,10.82
2023-04-07T11:28:49.556Z,6.93
2023-04-07T11:31:26.861Z,10.73
2023-04-07T11:33:59.400Z,11.35
2023-04-07T11:36:40.548Z,13.52
2023-04-07T11:39:21.786Z,6.45
2023-04-07T11:41:53.721Z,10.40
2023-04-07T11:44:20.490Z,10.13
2023-04-07T11:47:03.591Z,12.18
2023-04-07T11:49:31.794Z,8.73
2023-04-07T11:52:04.326Z,15.73
2023-04-07T11:54:47.210Z,10.52
2023-04-07T11:57:14.641Z,14.35
2023-04-07T11:59:43.651Z,10.23
2023-04-07T12:02:10.428Z,7.35
2023-04-07T12:04:40.967Z,9.02
2023-04-07T12:07:11.722Z,12.98
2023-04-07T12:09:39.032Z,9.48
2023-04-07T12:12:07.758Z,12.63
2023-04-07T12:14:37.253Z,13.13
2023-04-07T12:17:04.433Z,8.55
2023-04-07T12:19:34.915Z,12.20
2023-04-07T12:22:01.609Z,10.40
2023-04-07T12:24:32.316Z,7.95
2023-04-07T12:26:59.784Z,8.35
2023-04-07T12:29:30.044Z,10.82
2023-04-07T12:31:57.586Z,13.85
2023-04-07T12:34:24.201Z,8.57
2023-04-07T12:36:52.989Z,14.82
2023-04-07T12:39:19.584Z,14.18
2023-04-07T12:41:49.290Z,6.80
2023-04-07T12:44:16.698Z,12.73
2023-04-07T12:46:43.536Z,15.70
2023-04-07T12:49:12.583Z,15.93
2023-04-07T12:51:40.249Z,13.68
2023-04-07T12:54:07.016Z,17.15
2023-04-07T12:56:33.634Z,12.80
2023-04-07T12:59:00.252Z,14.55
2023-04-07T13:01:27.241Z,6.68
2023-04-07T13:03:54.401Z,10.20
2023-04-07T13:06:21.136Z,12.07
2023-04-07T13:08:47.740Z,14.93
2023-04-07T13:11:14.393Z,13.07
2023-04-07T13:13:43.416Z,12.35
2023-04-07T13:16:12.521Z,10.63
2023-04-07T13:18:39.115Z,12.57
2023-04-07T13:21:40.354Z,10.98
2023-04-07T13:23:52.755Z,10.48
2023-04-07T13:26:19.341Z,9.27
2023-04-07T13:28:46.257Z,11.35
2023-04-07T13:31:16.028Z,12.27
2023-04-07T13:33:43.079Z,12.50
2023-04-07T13:36:09.850Z,8.98
2023-04-07T13:38:42.382Z,6.28
2023-04-07T13:41:08.909Z,11.80
2023-04-07T13:43:35.798Z,10.95
2023-04-07T13:46:02.435Z,12.77
2023-04-07T13:48:29.172Z,9.95
2023-04-07T13:50:56.047Z,7.50
2023-04-07T13:53:23.149Z,10.48
2023-04-07T13:55:49.741Z,11.57
2023-04-07T13:58:16.940Z,6.18
2023-04-07T14:00:46.281Z,11.87
2023-04-07T14:03:13.119Z,14.05
2023-04-07T14:05:39.817Z,8.80
2023-04-07T14:08:06.385Z,12.90
2023-04-07T14:10:34.007Z,13.05
2023-04-07T14:13:03.045Z,8.43
2023-04-07T14:15:32.546Z,9.88
2023-04-07T14:18:00.852Z,15.20
2023-04-07T14:20:27.630Z,17.20
2023-04-07T14:22:54.930Z,13.02
2023-04-07T14:25:22.837Z,10.43
2023-04-07T14:27:50.387Z,9.13
2023-04-07T14:30:18.750Z,10.82
2023-04-07T14:32:45.874Z,16.27
2023-04-07T14:35:13.623Z,13.75
2023-04-07T14:37:42.518Z,14.15
2023-04-07T14:40:11.900Z,12.85
2023-04-07T14:42:38.526Z,15.27
2023-04-07T14:45:05.541Z,9.55
2023-04-07T14:47:32.133Z,14.10
2023-04-07T14:49:58.735Z,11.70
2023-04-07T14:52:25.958Z,19.10
2023-04-07T14:54:52.575Z,14.48
2023-04-07T14:57:22.433Z,10.63
2023-04-07T14:59:49.029Z,13.15
2023-04-07T15:02:15.832Z,12.82
2023-04-07T15:04:47.382Z,13.15
2023-04-07T15:07:14.074Z,12.93
2023-04-07T15:09:49.014Z,11.05
2023-04-07T15:12:15.720Z,13.85
2023-04-07T15:14:46.070Z,15.07
2023-04-07T15:17:15.532Z,15.05
2023-04-07T15:19:44.428Z,20.52
2023-04-07T15:22:11.055Z,10.05
2023-04-07T15:24:38.060Z,12.13
2023-04-07T15:27:07.534Z,13.60
2023-04-07T15:29:37.358Z,15.85
2023-04-07T15:32:08.692Z,14.48
2023-04-07T15:34:35.297Z,9.48
2023-04-07T15:37:03.957Z,15.50
2023-04-07T15:39:33.021Z,15.02
2023-04-07T15:42:02.434Z,12.88
2023-04-07T15:44:29.066Z,15.43
2023-04-07T15:46:55.948Z,20.25
2023-04-07T15:49:24.324Z,12.23
2023-04-07T15:51:52.631Z,11.52
2023-04-07T15:54:19.323Z,8.63
2023-04-07T15:56:46.079Z,14.77
2023-04-07T15:59:12.775Z,11.07
2023-04-07T16:01:39.661Z,9.93
2023-04-07T16:04:06.587Z,8.80
2023-04-07T16:06:33.639Z,11.20
2023-04-07T16:09:02.518Z,13.95
2023-04-07T16:11:31.649Z,14.98
2023-04-07T16:14:00.827Z,8.75
2023-04-07T16:16:27.493Z,8.52
2023-04-07T16:18:54.204Z,11.57
2023-04-07T16:21:23.782Z,17.77
2023-04-07T16:23:50.669Z,11.32
2023-04-07T16:26:17.451Z,11.20
2023-04-07T16:28:44.324Z,9.77
2023-04-07T16:31:13.558Z,10.50
2023-04-07T16:33:42.588Z,10.85
2023-04-07T16:36:10.452Z,12.10
2023-04-07T16:38:39.401Z,10.52
2023-04-07T16:41:07.879Z,10.55
2023-04-07T16:43:36.888Z,14.30
2023-04-07T16:46:04.544Z,9.52
2023-04-07T16:48:31.472Z,10.45
2023-04-07T16:50:59.147Z,11.10
2023-04-07T16:53:27.653Z,7.15
2023-04-07T16:55:57.699Z,8.73
2023-04-07T16:58:25.119Z,12.48
2023-04-07T17:00:52.094Z,10.88
2023-04-07T17:03:19.634Z,13.32
2023-04-07T17:05:48.584Z,13.10
2023-04-07T17:08:17.450Z,15.18
2023-04-07T17:10:45.790Z,14.50
2023-04-07T17:13:13.782Z,9.10
2023-04-07T17:15:40.523Z,13.80
2023-04-07T17:18:09.436Z,14.20
2023-04-07T17:20:36.919Z,12.10
2023-04-07T17:23:05.165Z,15.05
2023-04-07T17:25:32.002Z,11.57
2023-04-07T17:28:01.260Z,12.60
2023-04-07T17:30:28.699Z,17.95
2023-04-07T17:32:56.873Z,21.17
2023-04-07T17:35:25.350Z,10.98
2023-04-07T17:37:53.741Z,12.90
2023-04-07T17:40:25.476Z,15.07
2023-04-07T17:42:55.289Z,14.38
2023-04-07T17:45:23.228Z,14.10
2023-04-07T17:47:51.880Z,16.25
2023-04-07T17:50:19.687Z,20.30
2023-04-07T17:52:47.782Z,19.17
2023-04-07T17:55:15.002Z,16.83
2023-04-07T17:57:44.985Z,15.20
2023-04-07T18:00:12.247Z,17.88
2023-04-07T18:02:40.355Z,15.82
2023-04-07T18:05:10.036Z,11.70
2023-04-07T18:07:36.749Z,16.48
2023-04-07T18:10:03.743Z,19.67
2023-04-07T18:12:32.579Z,13.32
2023-04-07T18:14:59.203Z,11.13
2023-04-07T18:17:27.915Z,16.30
2023-04-07T18:19:57.824Z,16.20
2023-04-07T18:22:24.618Z,14.52
2023-04-07T18:24:51.676Z,15.60
2023-04-07T18:27:18.296Z,13.60
2023-04-07T18:29:44.865Z,15.07
2023-04-07T18:32:16.276Z,17.20
2023-04-07T18:34:43.062Z,13.38
2023-04-07T18:37:12.090Z,16.52
2023-04-07T18:39:40.948Z,15.57
2023-04-07T18:42:07.587Z,13.80
2023-04-07T18:44:34.242Z,19.30
2023-04-07T18:47:03.003Z,17.65
2023-04-07T18:49:33.188Z,20.02
2023-04-07T18:51:59.825Z,13.80
2023-04-07T18:54:28.196Z,19.13
2023-04-07T18:56:54.926Z,16.50
2023-04-07T18:59:21.896Z,11.98
2023-04-07T19:01:48.585Z,14.40
2023-04-07T19:04:16.443Z,11.20
2023-04-07T19:06:43.085Z,16.27
2023-04-07T19:09:11.808Z,16.30
2023-04-07T19:11:38.521Z,14.48
2023-04-07T19:14:05.981Z,12.93
2023-04-07T19:16:34.145Z,13.07
2023-04-07T19:19:00.943Z,14.85
2023-04-07T19:21:27.712Z,19.10
2023-04-07T19:23:56.883Z,17.55
2023-04-07T19:26:23.445Z,16.90
2023-04-07T19:28:50.193Z,14.25
2023-04-07T19:31:16.822Z,12.90
2023-04-07T19:33:45.900Z,20.27
2023-04-07T19:36:12.519Z,19.02
2023-04-07T19:38:39.148Z,14.13
2023-04-07T19:41:06.369Z,18.50
2023-04-07T19:43:32.906Z,19.88
2023-04-07T19:45:59.549Z,24.67
2023-04-07T19:48:26.577Z,22.20
2023-04-07T19:50:53.342Z,22.48
2023-04-07T19:53:20.105Z,17.98
2023-04-07T19:55:47.137Z,17.40
2023-04-07T19:58:21.115Z,16.92
2023-04-07T20:00:50.749Z,17.23
2023-04-07T20:03:20.842Z,15.35
2023-04-07T20:05:47.702Z,21.75
2023-04-07T20:08:14.447Z,20.85
2023-04-07T20:10:43.630Z,15.55
2023-04-07T20:13:11.296Z,16.90
2023-04-07T20:15:37.974Z,18.15
2023-04-07T20:18:04.683Z,19.35
2023-04-07T20:20:31.367Z,18.38
2023-04-07T20:22:57.971Z,20.25
2023-04-07T20:25:24.730Z,19.67
2023-04-07T20:27:51.330Z,14.65
2023-04-07T20:30:18.036Z,18.73
2023-04-07T20:32:47.065Z,19.65
2023-04-07T20:35:16.652Z,20.05
2023-04-07T20:37:44.491Z,17.45
2023-04-07T20:40:11.791Z,18.25
2023-04-07T20:42:40.905Z,23.20
2023-04-07T20:45:07.983Z,24.85
2023-04-07T20:47:36.647Z,22.60
2023-04-07T20:50:08.317Z,22.73
2023-04-07T20:52:39.524Z,18.95
2023-04-07T20:55:07.526Z,24.55
2023-04-07T20:57:34.071Z,20.90
2023-04-07T21:00:01.291Z,22.42
2023-04-07T21:02:33.216Z,17.05
2023-04-07T21:04:59.925Z,22.77
2023-04-07T21:07:26.648Z,22.63
2023-04-07T21:09:53.476Z,22.67
2023-04-07T21:12:20.223Z,24.50
2023-04-07T21:14:47.008Z,18.08
2023-04-07T21:17:14.164Z,24.90
2023-04-07T21:19:41.166Z,26.33
2023-04-07T21:22:07.950Z,21.67
2023-04-07T21:24:34.579Z,23.50
2023-04-07T21:27:01.210Z,28.55
2023-04-07T21:29:31.434Z,27.38
2023-04-07T21:31:58.456Z,20.67
2023-04-07T21:34:25.617Z,23.25
2023-04-07T21:36:57.190Z,24.05
2023-04-07T21:39:23.902Z,21.90
2023-04-07T21:41:50.538Z,19.83
2023-04-07T21:44:21.599Z,22.27
2023-04-07T21:46:48.729Z,20.65
2023-04-07T21:49:17.973Z,19.60
2023-04-07T21:51:44.665Z,29.65
2023-04-07T21:54:12.486Z,20.10
2023-04-07T21:56:39.125Z,22.25
2023-04-07T21:59:06.347Z,29.65
2023-04-07T22:01:33.217Z,22.05
2023-04-07T22:04:00.255Z,23.30
2023-04-07T22:06:27.264Z,23.13
2023-04-07T22:09:01.940Z,23.58
2023-04-07T22:11:29.466Z,28.55
2023-04-07T22:13:58.550Z,24.77
2023-04-07T22:16:25.371Z,31.63
2023-04-07T22:18:52.327Z,30.17
2023-04-07T22:21:19.186Z,23.55
2023-04-07T22:23:49.898Z,28.33
2023-04-07T22:26:17.412Z,25.23
2023-04-07T22:28:44.038Z,29.48
2023-04-07T22:31:13.187Z,27.58
2023-04-07T22:33:39.949Z,25.27
2023-04-07T22:36:11.212Z,25.00
2023-04-07T22:38:40.154Z,27.55
2023-04-07T22:41:06.832Z,22.00
2023-04-07T22:43:35.809Z,30.08
2023-04-07T22:46:02.639Z,21.98
2023-04-07T22:48:31.636Z,29.48
2023-04-07T22:50:58.442Z,24.23
2023-04-07T22:53:25.159Z,22.98
2023-04-07T22:55:52.004Z,25.02
2023-04-07T22:58:20.816Z,26.42
2023-04-07T23:00:47.566Z,29.08
2023-04-07T23:03:15.166Z,27.15
2023-04-07T23:05:42.156Z,34.05
2023-04-07T23:08:11.362Z,27.13
2023-04-07T23:10:37.970Z,27.70
2023-04-07T23:13:04.658Z,26.35
2023-04-07T23:15:33.681Z,28.98
2023-04-07T23:18:00.592Z,36.05
2023-04-07T23:20:29.755Z,32.08
2023-04-07T23:22:56.581Z,35.83
2023-04-07T23:25:23.292Z,36.10
2023-04-07T23:27:50.291Z,42.45
2023-04-07T23:30:17.093Z,36.17
2023-04-07T23:32:43.827Z,39.92
2023-04-07T23:35:10.921Z,34.15
2023-04-07T23:37:37.540Z,37.38
2023-04-07T23:40:05.523Z,38.97
2023-04-07T23:42:32.180Z,36.78
2023-04-07T23:45:03.629Z,31.33
2023-04-07T23:47:32.651Z,44.22
2023-04-07T23:50:00.383Z,31.63
2023-04-07T23:52:27.133Z,41.47
2023-04-07T23:54:53.874Z,40.40
2023-04-07T23:57:20.578Z,33.55
2023-04-07T23:59:49.383Z,35.00
